sensor_id;sensor_type;location;lat;lon;timestamp;pressure;altitude;pressure_sealevel;temperature;humidity
45939;BME280;31650;48.818;9.116;2023-04-19T00:05:59;98526.84;;;8.44;100.00
45939;BME280;31650;48.818;9.116;2023-04-19T00:20:59;98520.00;;;8.33;100.00
45939;BME280;31650;48.818;9.116;2023-04-19T00:35:59;98518.28;;;8.26;100.00
45939;BME280;31650;48.818;9.116;2023-04-19T00:51:00;98504.91;;;8.24;100.00
45939;BME280;31650;48.818;9.116;2023-04-19T01:06:01;98502.78;;;8.20;100.00
45939;BME280;31650;48.818;9.116;2023-04-19T01:21:01;98483.94;;;8.11;100.00
45939;BME280;31650;48.818;9.116;2023-04-19T01:36:01;98477.06;;;8.09;100.00
45939;BME280;31650;48.818;9.116;2023-04-19T01:51:02;98461.81;;;8.08;100.00
45939;BME280;31650;48.818;9.116;2023-04-19T02:06:02;98454.91;;;8.05;100.00
45939;BME280;31650;48.818;9.116;2023-04-19T02:21:03;98438.41;;;8.00;100.00
45939;BME280;31650;48.818;9.116;2023-04-19T02:36:03;98429.38;;;7.93;100.00
45939;BME280;31650;48.818;9.116;2023-04-19T02:51:03;98426.50;;;7.95;100.00
45939;BME280;31650;48.818;9.116;2023-04-19T03:06:03;98427.25;;;8.10;100.00
45939;BME280;31650;48.818;9.116;2023-04-19T03:21:04;98421.25;;;7.93;100.00
45939;BME280;31650;48.818;9.116;2023-04-19T03:36:04;98406.31;;;7.76;100.00
45939;BME280;31650;48.818;9.116;2023-04-19T03:51:04;98413.38;;;7.55;100.00
45939;BME280;31650;48.818;9.116;2023-04-19T04:06:05;98405.81;;;7.51;100.00
45939;BME280;31650;48.818;9.116;2023-04-19T04:21:05;98412.75;;;7.09;100.00
45939;BME280;31650;48.818;9.116;2023-04-19T04:36:06;98425.63;;;7.07;100.00
45939;BME280;31650;48.818;9.116;2023-04-19T04:51:06;98424.31;;;7.32;100.00
45939;BME280;31650;48.818;9.116;2023-04-19T05:06:07;98424.41;;;7.39;100.00
45939;BME280;31650;48.818;9.116;2023-04-19T05:21:07;98422.00;;;7.65;100.00
45939;BME280;31650;48.818;9.116;2023-04-19T05:36:09;98426.00;;;8.06;100.00
45939;BME280;31650;48.818;9.116;2023-04-19T05:51:09;98421.66;;;8.11;100.00
45939;BME280;31650;48.818;9.116;2023-04-19T06:06:10;98422.44;;;8.27;100.00
45939;BME280;31650;48.818;9.116;2023-04-19T06:21:10;98417.53;;;8.59;100.00
45939;BME280;31650;48.818;9.116;2023-04-19T06:36:10;98408.44;;;9.01;100.00
45939;BME280;31650;48.818;9.116;2023-04-19T06:51:10;98412.41;;;9.47;100.00
45939;BME280;31650;48.818;9.116;2023-04-19T07:06:10;98396.31;;;10.07;100.00
45939;BME280;31650;48.818;9.116;2023-04-19T07:21:11;98391.78;;;10.47;100.00
45939;BME280;31650;48.818;9.116;2023-04-19T07:36:11;98377.91;;;10.88;100.00
45939;BME280;31650;48.818;9.116;2023-04-19T07:51:12;98352.75;;;13.15;83.17
45939;BME280;31650;48.818;9.116;2023-04-19T08:06:13;98336.00;;;14.21;71.62
45939;BME280;31650;48.818;9.116;2023-04-19T08:21:14;98336.16;;;13.84;72.11
45939;BME280;31650;48.818;9.116;2023-04-19T08:36:15;98334.88;;;13.19;74.71
45939;BME280;31650;48.818;9.116;2023-04-19T08:51:18;98325.94;;;13.31;71.37
45939;BME280;31650;48.818;9.116;2023-04-19T09:06:19;98325.16;;;12.43;75.36
45939;BME280;31650;48.818;9.116;2023-04-19T09:21:29;98314.28;;;11.86;81.17
45939;BME280;31650;48.818;9.116;2023-04-19T09:36:30;98300.84;;;12.85;78.06
45939;BME280;31650;48.818;9.116;2023-04-19T09:51:43;98280.84;;;13.70;70.45
45939;BME280;31650;48.818;9.116;2023-04-19T10:06:44;98257.13;;;13.40;72.42
45939;BME280;31650;48.818;9.116;2023-04-19T10:21:44;98244.00;;;13.61;66.80
45939;BME280;31650;48.818;9.116;2023-04-19T10:36:46;98253.47;;;12.79;72.26
45939;BME280;31650;48.818;9.116;2023-04-19T10:51:47;98240.97;;;12.53;74.96
45939;BME280;31650;48.818;9.116;2023-04-19T11:21:52;98210.53;;;11.88;78.54
45939;BME280;31650;48.818;9.116;2023-04-19T11:36:56;98217.22;;;10.97;98.61
45939;BME280;31650;48.818;9.116;2023-04-19T11:51:58;98213.25;;;10.34;100.00
45939;BME280;31650;48.818;9.116;2023-04-19T12:06:59;98243.34;;;9.66;100.00
45939;BME280;31650;48.818;9.116;2023-04-19T12:22:07;98250.78;;;9.17;100.00
45939;BME280;31650;48.818;9.116;2023-04-19T12:37:07;98247.09;;;8.77;100.00
45939;BME280;31650;48.818;9.116;2023-04-19T12:52:07;98231.91;;;8.89;100.00
45939;BME280;31650;48.818;9.116;2023-04-19T13:07:08;98219.03;;;8.98;100.00
45939;BME280;31650;48.818;9.116;2023-04-19T13:22:08;98211.09;;;8.96;100.00
45939;BME280;31650;48.818;9.116;2023-04-19T13:37:08;98172.34;;;9.29;100.00
45939;BME280;31650;48.818;9.116;2023-04-19T13:52:09;98142.50;;;9.29;100.00
45939;BME280;31650;48.818;9.116;2023-04-19T14:07:09;98126.94;;;10.16;100.00
45939;BME280;31650;48.818;9.116;2023-04-19T14:22:10;98087.75;;;11.89;100.00
45939;BME280;31650;48.818;9.116;2023-04-19T14:37:10;98069.22;;;11.73;91.19
45939;BME280;31650;48.818;9.116;2023-04-19T14:52:10;98045.34;;;12.30;87.74
45939;BME280;31650;48.818;9.116;2023-04-19T15:07:10;98055.19;;;10.76;96.46
45939;BME280;31650;48.818;9.116;2023-04-19T15:22:11;98044.91;;;10.46;99.95
45939;BME280;31650;48.818;9.116;2023-04-19T15:37:11;98032.25;;;11.22;98.80
45939;BME280;31650;48.818;9.116;2023-04-19T15:52:11;98025.91;;;11.71;83.48
45939;BME280;31650;48.818;9.116;2023-04-19T16:07:11;98015.88;;;12.81;78.55
45939;BME280;31650;48.818;9.116;2023-04-19T16:22:11;98002.28;;;12.93;73.53
45939;BME280;31650;48.818;9.116;2023-04-19T16:37:12;98001.16;;;14.40;67.85
45939;BME280;31650;48.818;9.116;2023-04-19T16:52:12;97988.94;;;13.50;67.58
45939;BME280;31650;48.818;9.116;2023-04-19T17:07:12;97999.34;;;12.04;71.93
45939;BME280;31650;48.818;9.116;2023-04-19T17:22:13;98007.66;;;10.53;71.49
45939;BME280;31650;48.818;9.116;2023-04-19T17:37:13;98011.84;;;10.11;66.18
45939;BME280;31650;48.818;9.116;2023-04-19T17:52:13;98025.44;;;9.32;61.84
45939;BME280;31650;48.818;9.116;2023-04-19T18:07:14;98025.88;;;9.16;57.99
45939;BME280;31650;48.818;9.116;2023-04-19T18:22:14;98040.28;;;8.83;60.12
45939;BME280;31650;48.818;9.116;2023-04-19T18:37:14;98055.84;;;8.48;60.12
45939;BME280;31650;48.818;9.116;2023-04-19T18:52:15;98069.84;;;8.03;60.43
45939;BME280;31650;48.818;9.116;2023-04-19T19:07:16;98073.28;;;7.49;61.13
45939;BME280;31650;48.818;9.116;2023-04-19T19:22:17;98099.38;;;6.64;65.30
45939;BME280;31650;48.818;9.116;2023-04-19T19:37:17;98097.84;;;6.04;68.18
45939;BME280;31650;48.818;9.116;2023-04-19T19:52:17;98109.94;;;5.10;72.73
45939;BME280;31650;48.818;9.116;2023-04-19T20:07:17;98107.81;;;4.60;76.83
45939;BME280;31650;48.818;9.116;2023-04-19T20:22:18;98113.69;;;4.01;85.04
45939;BME280;31650;48.818;9.116;2023-04-19T20:37:18;98117.84;;;4.12;83.03
45939;BME280;31650;48.818;9.116;2023-04-19T20:52:22;98102.28;;;4.30;82.67
45939;BME280;31650;48.818;9.116;2023-04-19T21:07:22;98102.84;;;4.17;81.38
45939;BME280;31650;48.818;9.116;2023-04-19T21:22:22;98083.88;;;4.11;81.19
45939;BME280;31650;48.818;9.116;2023-04-19T21:37:23;98081.94;;;4.27;79.40
45939;BME280;31650;48.818;9.116;2023-04-19T21:52:23;98087.94;;;3.03;94.97
45939;BME280;31650;48.818;9.116;2023-04-19T22:07:23;98087.44;;;2.50;100.00
45939;BME280;31650;48.818;9.116;2023-04-19T22:22:24;98082.78;;;2.02;100.00
45939;BME280;31650;48.818;9.116;2023-04-19T22:37:24;98060.16;;;1.96;100.00
45939;BME280;31650;48.818;9.116;2023-04-19T22:52:25;98053.63;;;1.48;100.00
45939;BME280;31650;48.818;9.116;2023-04-19T23:07:25;98035.59;;;1.24;100.00
45939;BME280;31650;48.818;9.116;2023-04-19T23:22:27;98036.25;;;1.60;100.00
45939;BME280;31650;48.818;9.116;2023-04-19T23:37:27;98025.84;;;0.89;100.00
45939;BME280;31650;48.818;9.116;2023-04-19T23:52:28;98001.56;;;0.82;100.00
